Time;durP1;ratioP1;P1;durP2;ratioP2;P2;SDS_P1;SDS_P2;PMS_P1;PMS_P2;Temp;Humidity;BMP_temperature;BMP_pressure;BME280_temperature;BME280_humidity;BME280_pressure;Samples;Min_cycle;Max_cycle;Signal;HPM_P1;HPM_P2
2022/01/27 00:05:22;;;;;;;26.80;13.93;;;6.50;56.60;;;;;;4971050;28;20439;-45
2022/01/27 00:07:56;;;;;;;22.27;12.47;;;6.50;56.60;;;;;;4972249;28;20192;-44
2022/01/27 00:10:49;;;;;;;27.57;14.20;;;6.50;56.40;;;;;;4974786;28;20439;-44
2022/01/27 00:13:15;;;;;;;26.47;13.10;;;6.60;56.30;;;;;;4969840;28;20491;-43
2022/01/27 00:15:44;;;;;;;22.87;12.50;;;6.60;56.30;;;;;;4974128;28;20450;-43
2022/01/27 00:18:18;;;;;;;25.53;12.80;;;6.60;56.40;;;;;;4969481;28;20544;-43
2022/01/27 00:20:46;;;;;;;24.20;12.70;;;6.50;56.30;;;;;;4971931;28;20875;-43
2022/01/27 00:23:12;;;;;;;24.40;12.97;;;6.50;56.60;;;;;;4969942;28;20431;-43
2022/01/27 00:25:38;;;;;;;24.37;12.80;;;6.40;56.60;;;;;;4971050;28;20450;-44
2022/01/27 00:28:07;;;;;;;25.67;13.80;;;6.50;56.70;;;;;;4970811;28;20426;-43
2022/01/27 00:30:37;;;;;;;23.17;13.47;;;6.50;56.70;;;;;;4974600;28;20954;-44
2022/01/27 00:33:04;;;;;;;22.30;13.20;;;6.50;56.50;;;;;;4970692;28;20482;-43
2022/01/27 00:35:33;;;;;;;26.70;14.50;;;6.50;56.50;;;;;;4970521;28;20954;-44
2022/01/27 00:38:00;;;;;;;23.13;13.03;;;6.50;56.40;;;;;;4969647;28;20537;-43
2022/01/27 00:40:25;;;;;;;26.13;14.03;;;6.60;56.40;;;;;;4967034;28;20497;-43
2022/01/27 00:42:52;;;;;;;22.83;14.10;;;6.60;56.40;;;;;;4968012;28;20459;-43
2022/01/27 00:45:18;;;;;;;26.23;13.87;;;6.60;56.40;;;;;;4968258;28;20305;-43
2022/01/27 00:47:43;;;;;;;24.70;13.73;;;6.70;56.40;;;;;;4969009;28;20947;-43
2022/01/27 00:50:09;;;;;;;30.60;14.87;;;6.70;56.40;;;;;;4972135;28;20890;-44
2022/01/27 00:55:01;;;;;;;28.00;15.23;;;6.70;56.20;;;;;;4972744;28;20434;-43
2022/01/27 00:57:40;;;;;;;27.83;12.87;;;6.70;56.20;;;;;;4975379;28;20202;-43
2022/01/27 01:00:09;;;;;;;26.23;13.50;;;6.70;56.30;;;;;;4975018;28;20195;-44
2022/01/27 01:03:01;;;;;;;24.33;12.50;;;6.70;56.20;;;;;;4973387;28;20457;-44
2022/01/27 01:07:57;;;;;;;27.10;12.77;;;6.80;56.10;;;;;;4974014;28;20435;-46
2022/01/27 01:15:49;;;;;;;28.87;14.63;;;6.80;55.90;;;;;;4975316;28;20447;-43
2022/01/27 01:18:35;;;;;;;26.37;15.00;;;6.80;56.40;;;;;;4975294;28;20453;-43
2022/01/27 01:34:47;;;;;;;30.60;15.10;;;6.90;55.70;;;;;;4925934;29;20460;-44
2022/01/27 01:37:17;;;;;;;27.77;13.80;;;6.90;55.80;;;;;;4966881;28;20453;-43
2022/01/27 01:39:43;;;;;;;28.10;13.30;;;6.90;55.60;;;;;;4977372;28;20453;-45
2022/01/27 01:42:10;;;;;;;28.90;13.97;;;6.90;55.50;;;;;;4971471;28;20482;-45
2022/01/27 01:44:37;;;;;;;27.77;14.93;;;6.90;55.60;;;;;;4973222;28;20230;-43
2022/01/27 01:47:03;;;;;;;24.40;13.43;;;6.80;55.70;;;;;;4973392;28;20442;-43
2022/01/27 01:49:29;;;;;;;25.90;14.37;;;6.80;56.00;;;;;;4977255;28;20438;-44
2022/01/27 01:52:05;;;;;;;30.27;14.03;;;6.80;55.90;;;;;;4968764;28;21252;-44
2022/01/27 01:54:30;;;;;;;25.43;14.57;;;6.90;55.70;;;;;;4967463;28;20454;-45
2022/01/27 01:56:56;;;;;;;26.47;13.60;;;6.90;55.50;;;;;;4972859;28;20449;-44
2022/01/27 01:59:22;;;;;;;24.30;13.00;;;6.70;55.70;;;;;;4973286;28;20227;-43
2022/01/27 02:01:47;;;;;;;23.43;13.43;;;6.70;56.00;;;;;;4972791;28;20246;-44
2022/01/27 02:04:13;;;;;;;21.73;13.53;;;6.70;56.20;;;;;;4973755;28;20210;-45
2022/01/27 02:06:47;;;;;;;23.07;13.60;;;6.70;56.10;;;;;;4973844;28;20540;-44
2022/01/27 02:20:07;;;;;;;25.90;13.67;;;6.90;55.40;;;;;;4972984;28;20441;-44
2022/01/27 02:22:32;;;;;;;24.30;13.00;;;6.90;55.40;;;;;;4972405;28;20445;-43
2022/01/27 02:24:58;;;;;;;23.07;14.37;;;6.90;55.30;;;;;;4973118;28;20533;-43
2022/01/27 02:27:23;;;;;;;28.10;14.70;;;6.90;55.20;;;;;;4972388;28;20249;-43
2022/01/27 02:29:50;;;;;;;28.73;14.83;;;6.80;55.30;;;;;;4972043;28;20666;-44
2022/01/27 02:32:18;;;;;;;31.83;15.27;;;6.80;55.20;;;;;;4972457;28;20195;-44
2022/01/27 02:34:44;;;;;;;21.53;12.57;;;6.80;55.40;;;;;;4978391;28;20445;-45
2022/01/27 02:37:10;;;;;;;26.13;13.60;;;6.90;55.50;;;;;;4971173;28;20446;-43
2022/01/27 02:39:36;;;;;;;28.13;14.50;;;6.90;55.30;;;;;;4977563;28;20450;-44
2022/01/27 02:42:09;;;;;;;25.93;13.27;;;6.90;55.30;;;;;;4972449;28;20470;-43
2022/01/27 02:44:54;;;;;;;29.13;15.27;;;6.90;55.30;;;;;;4972375;28;21118;-44
2022/01/27 02:47:21;;;;;;;24.83;13.30;;;6.90;55.20;;;;;;4967829;28;20451;-45
2022/01/27 02:49:48;;;;;;;25.73;14.33;;;6.90;55.10;;;;;;4973561;28;20618;-46
2022/01/27 02:52:14;;;;;;;25.23;14.30;;;7.00;55.20;;;;;;4971185;28;20481;-44
2022/01/27 02:54:40;;;;;;;26.20;13.60;;;6.90;55.00;;;;;;4971459;28;20450;-44
2022/01/27 02:57:06;;;;;;;28.97;14.20;;;6.80;55.00;;;;;;4971107;28;20481;-46
2022/01/27 02:59:32;;;;;;;25.77;15.60;;;6.90;55.30;;;;;;4968651;28;20453;-44
2022/01/27 03:01:59;;;;;;;23.13;12.37;;;7.00;55.30;;;;;;4969266;28;20443;-44
2022/01/27 03:04:26;;;;;;;30.27;14.83;;;7.00;55.20;;;;;;4969891;28;20207;-44
2022/01/27 03:06:52;;;;;;;24.40;14.30;;;7.00;55.10;;;;;;4972475;28;20438;-44
2022/01/27 03:09:18;;;;;;;27.03;13.60;;;7.00;55.10;;;;;;4973000;28;20454;-43
2022/01/27 03:12:17;;;;;;;25.90;13.57;;;7.00;55.20;;;;;;4972473;28;20427;-43
2022/01/27 03:14:43;;;;;;;24.07;13.50;;;7.00;55.20;;;;;;4941319;28;20557;-44
2022/01/27 03:17:10;;;;;;;22.57;13.50;;;6.90;55.00;;;;;;4971907;28;20443;-44
2022/01/27 03:19:37;;;;;;;21.73;12.53;;;6.90;55.10;;;;;;4974021;28;20441;-43
2022/01/27 03:22:03;;;;;;;24.40;12.77;;;6.90;55.20;;;;;;4972204;28;20446;-45
2022/01/27 03:24:30;;;;;;;22.07;13.00;;;6.90;55.20;;;;;;4971636;28;20446;-44
2022/01/27 03:26:56;;;;;;;24.00;12.47;;;7.00;55.20;;;;;;4968258;28;20434;-45
2022/01/27 03:29:22;;;;;;;22.70;13.30;;;6.90;55.00;;;;;;4970903;28;20779;-44
2022/01/27 03:31:48;;;;;;;22.30;12.90;;;6.90;54.80;;;;;;4974673;28;20434;-45
2022/01/27 03:34:15;;;;;;;26.13;13.47;;;6.90;54.80;;;;;;4972256;28;20841;-47
2022/01/27 03:36:41;;;;;;;25.10;14.10;;;6.90;54.80;;;;;;4971610;28;20203;-44
2022/01/27 03:39:10;;;;;;;21.13;11.90;;;6.80;54.80;;;;;;4972318;28;20496;-44
2022/01/27 03:41:38;;;;;;;21.97;13.10;;;6.80;55.00;;;;;;4981933;28;20474;-44
2022/01/27 03:44:06;;;;;;;22.83;13.47;;;6.80;54.90;;;;;;4971842;28;20479;-43
2022/01/27 03:46:31;;;;;;;25.07;14.10;;;6.90;54.80;;;;;;4971774;28;20476;-44
2022/01/27 03:48:57;;;;;;;18.33;12.63;;;6.90;54.70;;;;;;4972011;28;20442;-45
2022/01/27 03:51:23;;;;;;;24.60;13.90;;;6.90;54.60;;;;;;4972740;28;20189;-44
2022/01/27 03:53:49;;;;;;;23.77;13.67;;;6.90;54.50;;;;;;4972229;28;20313;-44
2022/01/27 03:56:14;;;;;;;24.07;13.60;;;6.90;54.50;;;;;;4971265;28;20196;-46
2022/01/27 03:58:40;;;;;;;23.53;11.73;;;6.90;54.50;;;;;;4971258;28;20439;-44
2022/01/27 04:01:06;;;;;;;23.93;13.00;;;6.90;54.70;;;;;;4969265;28;20625;-44
2022/01/27 04:03:36;;;;;;;25.07;13.20;;;6.90;54.70;;;;;;4975327;28;20195;-45
2022/01/27 04:06:09;;;;;;;23.70;12.87;;;6.90;54.60;;;;;;4969921;28;20671;-44
2022/01/27 04:08:37;;;;;;;22.40;13.23;;;6.90;54.60;;;;;;4971125;28;20446;-44
2022/01/27 04:11:08;;;;;;;21.60;13.37;;;6.90;54.50;;;;;;4966991;28;20460;-45
2022/01/27 04:13:34;;;;;;;23.43;13.07;;;6.80;54.60;;;;;;4971251;28;20581;-44
2022/01/27 04:16:01;;;;;;;22.03;13.10;;;6.80;54.50;;;;;;4972766;28;20852;-48
2022/01/27 04:18:27;;;;;;;21.90;12.57;;;6.90;54.50;;;;;;4973724;28;20458;-44
2022/01/27 04:20:53;;;;;;;21.67;12.40;;;6.90;54.40;;;;;;4972226;28;20805;-44
2022/01/27 04:23:19;;;;;;;26.97;13.27;;;6.90;54.30;;;;;;4970027;28;20430;-44
2022/01/27 04:25:46;;;;;;;27.10;13.70;;;6.90;54.20;;;;;;4977344;28;20201;-44
2022/01/27 04:28:15;;;;;;;27.63;13.40;;;6.90;54.20;;;;;;4970997;28;20442;-44
2022/01/27 04:30:40;;;;;;;23.30;13.70;;;6.90;54.20;;;;;;4974945;28;20493;-43
2022/01/27 04:33:07;;;;;;;24.80;13.53;;;6.90;54.20;;;;;;4975156;28;20596;-44
2022/01/27 04:35:38;;;;;;;22.10;12.40;;;6.90;54.20;;;;;;4975337;28;20330;-45
2022/01/27 04:40:43;;;;;;;24.80;14.47;;;6.80;54.10;;;;;;4974761;28;20475;-45
2022/01/27 04:45:45;;;;;;;24.80;14.70;;;6.90;54.20;;;;;;4975355;28;20449;-44
2022/01/27 04:48:14;;;;;;;30.90;13.30;;;6.90;54.20;;;;;;4975783;28;20505;-44
2022/01/27 04:50:41;;;;;;;23.70;13.77;;;6.90;54.30;;;;;;4975674;28;20812;-44
2022/01/27 04:53:11;;;;;;;22.27;13.20;;;6.90;54.30;;;;;;4984488;28;20494;-44
2022/01/27 04:55:37;;;;;;;25.20;14.00;;;6.90;54.30;;;;;;4974702;28;20889;-44
2022/01/27 04:58:11;;;;;;;24.80;14.07;;;6.90;54.40;;;;;;4974375;28;20529;-43
2022/01/27 05:00:37;;;;;;;25.40;13.23;;;6.80;54.30;;;;;;4974615;28;20206;-44
2022/01/27 05:03:12;;;;;;;26.23;13.40;;;6.90;54.40;;;;;;4978482;28;20835;-43
2022/01/27 05:05:38;;;;;;;25.83;14.20;;;6.80;54.40;;;;;;4974995;28;20191;-44
2022/01/27 05:08:04;;;;;;;21.33;13.37;;;6.80;54.30;;;;;;4974383;28;20441;-44
2022/01/27 05:10:34;;;;;;;24.83;14.13;;;6.80;54.30;;;;;;4974697;28;20430;-45
2022/01/27 05:13:07;;;;;;;24.27;13.00;;;6.80;54.50;;;;;;4970088;28;20596;-44
2022/01/27 05:15:40;;;;;;;27.10;13.83;;;6.80;54.50;;;;;;4976228;28;20457;-44
2022/01/27 05:18:06;;;;;;;22.10;14.03;;;6.80;54.50;;;;;;4972281;28;20544;-44
2022/01/27 05:20:32;;;;;;;21.90;13.40;;;6.80;54.40;;;;;;4971092;28;20482;-44
2022/01/27 05:22:57;;;;;;;25.97;14.03;;;6.70;54.40;;;;;;4975139;28;20199;-44
2022/01/27 05:25:23;;;;;;;26.27;15.03;;;6.70;54.50;;;;;;4978665;28;20195;-44
2022/01/27 05:27:48;;;;;;;27.50;15.83;;;6.70;54.70;;;;;;4974707;28;20187;-44
2022/01/27 05:30:14;;;;;;;23.77;13.87;;;6.70;54.70;;;;;;4975478;28;20199;-45
2022/01/27 05:32:40;;;;;;;23.87;14.63;;;6.70;54.60;;;;;;4975049;28;20245;-44
2022/01/27 05:35:05;;;;;;;26.80;13.27;;;6.80;54.40;;;;;;4976004;28;20208;-43
2022/01/27 05:37:31;;;;;;;25.93;14.97;;;6.80;54.30;;;;;;4973448;28;20194;-44
2022/01/27 05:39:57;;;;;;;27.10;15.30;;;6.80;54.40;;;;;;4974599;28;20230;-44
2022/01/27 05:42:22;;;;;;;25.07;12.77;;;6.90;54.40;;;;;;4971696;28;20206;-44
2022/01/27 05:44:48;;;;;;;23.50;13.40;;;6.90;54.20;;;;;;4974221;28;20222;-44
2022/01/27 05:47:14;;;;;;;24.30;14.83;;;6.90;54.20;;;;;;4973353;28;20278;-45
2022/01/27 05:49:40;;;;;;;26.30;14.43;;;6.90;54.30;;;;;;4972457;28;20257;-43
2022/01/27 05:52:06;;;;;;;24.10;14.50;;;6.80;54.50;;;;;;4977255;28;20913;-44
2022/01/27 05:54:34;;;;;;;22.43;13.63;;;6.90;54.40;;;;;;4977613;28;20357;-44
2022/01/27 05:57:00;;;;;;;28.30;14.70;;;6.90;54.20;;;;;;4972840;28;20201;-44
2022/01/27 05:59:25;;;;;;;24.13;13.20;;;6.90;54.10;;;;;;4973964;28;20481;-44
2022/01/27 06:01:51;;;;;;;25.50;13.83;;;6.90;54.10;;;;;;4981612;28;20914;-44
2022/01/27 06:04:17;;;;;;;24.47;15.23;;;7.00;54.20;;;;;;4975564;28;20643;-44
2022/01/27 06:06:42;;;;;;;29.97;15.33;;;6.80;54.00;;;;;;4973264;28;20195;-43
2022/01/27 06:09:08;;;;;;;21.80;12.90;;;6.80;54.30;;;;;;4973534;28;20641;-44
2022/01/27 06:11:33;;;;;;;23.17;13.30;;;6.80;54.20;;;;;;4971363;28;20215;-45
2022/01/27 06:13:59;;;;;;;30.47;15.03;;;6.80;54.20;;;;;;4973356;28;20219;-44
2022/01/27 06:16:24;;;;;;;20.67;12.70;;;6.70;54.40;;;;;;4972709;28;20203;-43
2022/01/27 06:18:50;;;;;;;25.17;14.43;;;6.70;54.40;;;;;;4971130;28;20254;-44
2022/01/27 06:21:17;;;;;;;23.70;13.00;;;6.70;54.60;;;;;;4971726;28;20282;-44
2022/01/27 06:23:43;;;;;;;24.10;13.30;;;6.70;54.60;;;;;;4976646;28;20227;-43
2022/01/27 06:26:08;;;;;;;26.47;15.30;;;6.80;54.60;;;;;;4973996;28;20485;-43
2022/01/27 06:28:34;;;;;;;24.03;13.67;;;6.60;54.30;;;;;;4973831;28;20252;-43
2022/01/27 06:31:00;;;;;;;21.67;12.93;;;6.50;54.90;;;;;;4971893;28;20191;-44
2022/01/27 06:33:25;;;;;;;22.47;13.77;;;6.60;54.50;;;;;;4970764;28;20230;-43
2022/01/27 06:35:51;;;;;;;20.20;12.60;;;6.60;54.50;;;;;;4973230;28;20645;-43
2022/01/27 06:38:17;;;;;;;24.83;13.90;;;6.70;54.20;;;;;;4977148;28;20187;-44
2022/01/27 06:40:43;;;;;;;22.20;13.20;;;6.80;54.10;;;;;;4981624;28;20237;-44
2022/01/27 06:43:12;;;;;;;27.70;13.90;;;6.80;54.00;;;;;;4973609;28;20981;-48
2022/01/27 06:45:38;;;;;;;24.80;14.60;;;6.70;54.00;;;;;;4976666;28;20443;-43
2022/01/27 06:48:04;;;;;;;27.53;15.07;;;6.80;53.90;;;;;;4972797;28;20489;-43
2022/01/27 06:50:31;;;;;;;23.47;13.43;;;6.90;53.60;;;;;;4973087;28;20670;-44
2022/01/27 06:52:57;;;;;;;24.90;14.83;;;6.80;53.60;;;;;;4977777;28;20289;-43
2022/01/27 06:55:23;;;;;;;21.27;12.90;;;6.80;53.70;;;;;;4972993;28;20447;-43
2022/01/27 06:57:50;;;;;;;26.90;15.23;;;6.80;53.70;;;;;;4972291;28;20621;-43
2022/01/27 07:00:16;;;;;;;30.13;15.73;;;6.80;53.70;;;;;;4972293;28;20202;-43
2022/01/27 07:02:42;;;;;;;31.43;19.20;;;6.70;54.50;;;;;;4970550;28;20533;-43
2022/01/27 07:05:08;;;;;;;30.30;16.47;;;6.70;54.20;;;;;;4972725;28;20525;-43
2022/01/27 07:07:33;;;;;;;28.30;15.83;;;7.00;54.40;;;;;;4974720;28;20221;-43
2022/01/27 07:09:59;;;;;;;31.73;17.77;;;7.00;53.80;;;;;;4975713;28;20516;-43
2022/01/27 07:12:24;;;;;;;36.23;17.67;;;7.10;53.60;;;;;;4975220;28;20672;-43
2022/01/27 07:14:50;;;;;;;33.50;16.47;;;7.20;53.50;;;;;;4980098;28;20273;-43
2022/01/27 07:17:19;;;;;;;34.47;18.43;;;7.10;53.40;;;;;;4973565;28;20195;-44
2022/01/27 07:19:44;;;;;;;33.87;18.07;;;6.80;53.70;;;;;;4971910;28;20210;-43
2022/01/27 07:22:10;;;;;;;34.03;16.30;;;6.70;53.80;;;;;;4968173;28;20458;-43
2022/01/27 07:24:36;;;;;;;33.33;17.87;;;6.60;54.30;;;;;;4969275;28;20553;-43
2022/01/27 07:27:02;;;;;;;29.87;16.80;;;6.50;54.50;;;;;;4965573;28;20241;-43
2022/01/27 07:29:27;;;;;;;29.43;16.30;;;6.40;54.80;;;;;;4974081;28;20206;-43
2022/01/27 07:31:53;;;;;;;34.13;16.43;;;6.40;54.60;;;;;;4970974;28;20439;-44
2022/01/27 07:34:18;;;;;;;33.20;16.73;;;6.30;54.70;;;;;;4969202;28;20226;-43
2022/01/27 07:36:44;;;;;;;25.80;15.30;;;6.10;54.70;;;;;;4971024;28;20191;-44
2022/01/27 07:39:14;;;;;;;30.07;14.77;;;6.10;54.90;;;;;;4970873;28;20541;-44
2022/01/27 07:41:42;;;;;;;26.67;14.03;;;5.90;54.80;;;;;;4973124;28;20243;-44
2022/01/27 07:44:07;;;;;;;28.90;15.80;;;5.70;55.00;;;;;;4981745;28;20787;-44
2022/01/27 07:46:33;;;;;;;29.43;14.37;;;5.60;55.40;;;;;;4972474;28;20426;-43
2022/01/27 07:48:59;;;;;;;24.83;13.80;;;5.60;55.70;;;;;;4972503;28;20198;-44
2022/01/27 07:51:25;;;;;;;27.17;12.90;;;5.60;55.90;;;;;;4972298;28;20250;-44
2022/01/27 07:53:51;;;;;;;30.20;14.53;;;5.50;56.00;;;;;;4980237;28;20230;-44
2022/01/27 07:56:16;;;;;;;28.77;14.73;;;5.50;55.70;;;;;;4975965;28;20449;-43
2022/01/27 07:58:43;;;;;;;30.23;14.20;;;5.50;55.70;;;;;;4973582;28;20253;-43
2022/01/27 08:01:09;;;;;;;27.17;14.27;;;5.50;55.60;;;;;;4972395;28;20237;-43
2022/01/27 08:03:38;;;;;;;27.93;14.50;;;5.40;56.00;;;;;;4973000;28;20471;-43
2022/01/27 08:06:05;;;;;;;27.60;14.60;;;5.40;55.90;;;;;;4983837;28;20427;-44
2022/01/27 08:08:31;;;;;;;29.70;13.20;;;5.20;55.80;;;;;;4974871;28;20423;-43
2022/01/27 08:10:57;;;;;;;27.40;14.50;;;5.20;56.10;;;;;;4976457;28;20430;-43
2022/01/27 08:13:24;;;;;;;26.10;14.20;;;5.00;56.30;;;;;;4981947;28;20234;-43
2022/01/27 08:15:49;;;;;;;30.47;15.37;;;5.20;56.50;;;;;;4987125;28;20450;-44
2022/01/27 08:18:15;;;;;;;25.90;14.43;;;5.10;56.40;;;;;;4976358;28;20923;-43
2022/01/27 08:20:40;;;;;;;30.87;14.90;;;5.20;56.60;;;;;;4977268;28;20626;-44
2022/01/27 08:23:06;;;;;;;33.67;15.27;;;5.40;56.40;;;;;;4970449;28;20195;-43
2022/01/27 08:25:33;;;;;;;33.70;16.67;;;5.40;56.10;;;;;;4978099;28;20278;-43
2022/01/27 08:28:03;;;;;;;28.20;14.23;;;5.40;56.00;;;;;;4987138;28;20461;-43
2022/01/27 08:30:36;;;;;;;29.13;15.50;;;5.30;56.20;;;;;;4980927;28;20869;-43
2022/01/27 08:33:08;;;;;;;36.43;15.57;;;5.50;56.00;;;;;;4974857;28;20939;-43
2022/01/27 08:35:33;;;;;;;31.50;15.27;;;5.50;56.00;;;;;;4974730;28;20472;-43
2022/01/27 08:37:59;;;;;;;35.60;15.70;;;5.60;56.10;;;;;;4975943;28;20790;-43
2022/01/27 08:40:25;;;;;;;29.53;14.60;;;5.30;56.20;;;;;;4976294;28;20285;-44
2022/01/27 08:42:51;;;;;;;32.77;14.30;;;5.50;56.30;;;;;;4973894;28;20214;-44
2022/01/27 08:45:19;;;;;;;30.50;16.63;;;5.30;56.50;;;;;;4973725;28;20442;-43
2022/01/27 08:47:46;;;;;;;34.17;16.53;;;5.20;56.70;;;;;;4974862;28;20207;-43
2022/01/27 08:50:13;;;;;;;30.73;16.33;;;5.20;56.90;;;;;;4975682;28;20868;-43
2022/01/27 08:52:39;;;;;;;29.17;14.23;;;5.20;57.00;;;;;;4975386;28;20510;-44
2022/01/27 08:55:07;;;;;;;30.40;14.27;;;5.00;56.90;;;;;;4975121;28;20442;-43
2022/01/27 08:57:33;;;;;;;27.77;15.13;;;4.90;57.10;;;;;;4974122;28;20437;-44
2022/01/27 09:00:01;;;;;;;29.00;14.67;;;4.80;57.40;;;;;;4977014;28;20438;-43
2022/01/27 09:02:26;;;;;;;29.80;14.63;;;4.90;57.60;;;;;;4971851;28;20850;-43
2022/01/27 09:04:52;;;;;;;34.13;16.97;;;5.00;57.60;;;;;;4982400;28;20443;-44
2022/01/27 09:07:19;;;;;;;34.70;16.57;;;5.00;57.40;;;;;;4980377;28;20199;-43
2022/01/27 09:09:45;;;;;;;29.07;14.00;;;5.20;57.20;;;;;;4977242;28;20442;-43
2022/01/27 09:12:13;;;;;;;30.87;15.20;;;5.20;56.70;;;;;;4973700;28;20449;-43
2022/01/27 09:14:41;;;;;;;27.20;14.50;;;5.20;56.70;;;;;;4976862;28;20481;-42
2022/01/27 09:17:11;;;;;;;28.90;13.70;;;5.20;56.50;;;;;;4974124;28;20495;-43
2022/01/27 09:19:41;;;;;;;26.37;14.23;;;5.40;56.20;;;;;;4976038;28;20437;-43
2022/01/27 09:22:12;;;;;;;27.60;14.60;;;5.70;55.70;;;;;;4975720;28;20494;-44
2022/01/27 09:24:55;;;;;;;26.40;13.70;;;6.00;55.30;;;;;;4976173;28;20447;-43
2022/01/27 09:27:21;;;;;;;27.20;13.40;;;6.10;54.50;;;;;;4973933;28;20787;-43
2022/01/27 09:29:48;;;;;;;27.33;12.20;;;6.20;54.20;;;;;;4972615;28;21028;-43
2022/01/27 09:32:14;;;;;;;24.77;11.80;;;6.30;53.70;;;;;;4972242;28;20438;-43
2022/01/27 09:34:40;;;;;;;20.57;11.73;;;6.20;53.50;;;;;;4973613;28;20482;-43
2022/01/27 09:37:06;;;;;;;21.80;11.07;;;6.30;53.40;;;;;;4973916;28;20446;-43
2022/01/27 09:39:33;;;;;;;23.33;12.20;;;6.60;53.20;;;;;;4976818;28;20278;-43
2022/01/27 09:42:01;;;;;;;24.80;12.47;;;6.70;52.80;;;;;;4973491;28;20466;-43
2022/01/27 09:44:30;;;;;;;30.67;13.77;;;6.80;52.60;;;;;;4973553;28;20443;-44
2022/01/27 09:47:02;;;;;;;27.80;12.70;;;6.90;52.30;;;;;;4974795;28;20474;-43
2022/01/27 09:49:41;;;;;;;22.23;11.80;;;7.00;52.10;;;;;;4979833;28;20448;-44
2022/01/27 09:52:07;;;;;;;24.87;12.43;;;7.10;51.90;;;;;;4974253;28;20962;-44
2022/01/27 09:54:34;;;;;;;24.07;13.30;;;7.10;51.80;;;;;;4968842;28;20490;-44
2022/01/27 09:57:00;;;;;;;23.73;12.70;;;7.00;52.10;;;;;;4962975;28;20242;-45
2022/01/27 09:59:26;;;;;;;27.13;13.70;;;6.90;52.00;;;;;;4973280;28;20948;-45
2022/01/27 10:02:07;;;;;;;25.67;14.20;;;6.90;52.20;;;;;;4966540;28;20439;-44
2022/01/27 10:04:43;;;;;;;25.93;13.43;;;6.70;52.30;;;;;;4973834;28;20218;-44
2022/01/27 10:07:10;;;;;;;27.83;13.43;;;6.60;52.90;;;;;;4973162;28;20435;-44
2022/01/27 10:09:36;;;;;;;32.60;14.70;;;6.70;52.90;;;;;;4974206;28;20601;-45
2022/01/27 10:12:04;;;;;;;24.87;13.50;;;6.80;53.00;;;;;;4969492;28;20530;-43
2022/01/27 10:14:36;;;;;;;24.43;12.57;;;6.90;53.00;;;;;;4977728;28;20488;-42
2022/01/27 10:17:07;;;;;;;21.90;13.13;;;7.00;53.10;;;;;;4972381;28;21389;-44
2022/01/27 10:19:36;;;;;;;23.50;12.33;;;6.90;53.20;;;;;;4972910;28;20446;-43
2022/01/27 10:22:06;;;;;;;23.13;11.90;;;6.90;53.30;;;;;;4971226;28;20499;-43
2022/01/27 10:24:34;;;;;;;21.63;11.10;;;6.70;53.70;;;;;;4971006;28;20438;-44
2022/01/27 10:27:29;;;;;;;20.20;11.57;;;6.70;53.90;;;;;;4968834;28;20446;-44
2022/01/27 10:32:47;;;;;;;22.90;11.80;;;7.00;53.70;;;;;;4968452;28;20443;-44
2022/01/27 10:35:14;;;;;;;19.60;11.63;;;7.10;53.60;;;;;;4973868;28;20774;-45
2022/01/27 10:38:06;;;;;;;24.97;13.40;;;7.20;53.20;;;;;;4973837;28;20430;-44
2022/01/27 10:40:41;;;;;;;21.17;12.60;;;7.20;53.10;;;;;;4975795;28;20992;-48
2022/01/27 10:43:08;;;;;;;16.87;10.83;;;7.30;53.10;;;;;;4972729;28;20438;-44
2022/01/27 10:45:36;;;;;;;21.80;11.27;;;7.30;53.40;;;;;;4972634;28;20774;-44
2022/01/27 10:48:13;;;;;;;18.47;10.37;;;7.10;53.80;;;;;;4971662;28;20808;-44
2022/01/27 10:50:51;;;;;;;19.17;10.50;;;7.20;54.40;;;;;;4967188;28;20904;-43
2022/01/27 10:53:19;;;;;;;19.37;10.53;;;7.20;54.90;;;;;;4967955;28;20517;-44
2022/01/27 10:55:45;;;;;;;18.10;10.40;;;7.30;54.30;;;;;;4968522;28;20459;-44
2022/01/27 10:58:27;;;;;;;24.47;12.00;;;7.40;54.10;;;;;;4973800;28;20458;-44
2022/01/27 11:01:00;;;;;;;23.77;11.87;;;7.40;54.50;;;;;;4970764;28;20447;-48
2022/01/27 11:03:27;;;;;;;23.50;13.97;;;7.40;53.80;;;;;;4971408;28;20441;-44
2022/01/27 11:05:54;;;;;;;24.90;13.17;;;7.30;54.00;;;;;;4971752;28;20457;-44
2022/01/27 11:08:23;;;;;;;27.37;12.90;;;7.30;54.10;;;;;;4976537;28;20434;-44
2022/01/27 11:10:50;;;;;;;19.70;11.53;;;7.30;54.10;;;;;;4972804;28;20499;-44
2022/01/27 11:13:19;;;;;;;20.57;11.20;;;7.30;54.20;;;;;;4977750;28;20977;-45
2022/01/27 11:15:45;;;;;;;19.77;12.20;;;7.30;54.30;;;;;;4974749;28;20450;-44
2022/01/27 11:18:15;;;;;;;21.47;11.37;;;7.40;54.20;;;;;;4971256;28;20458;-45
2022/01/27 11:20:55;;;;;;;20.80;11.67;;;7.50;54.70;;;;;;4973877;28;20442;-44
2022/01/27 11:23:49;;;;;;;24.47;13.63;;;7.60;54.10;;;;;;4970817;28;20442;-44
2022/01/27 11:26:22;;;;;;;17.97;11.20;;;7.60;54.20;;;;;;4973761;28;20525;-44
2022/01/27 11:28:49;;;;;;;18.20;11.80;;;7.70;54.10;;;;;;4976648;28;20438;-45
2022/01/27 11:31:45;;;;;;;19.03;10.70;;;7.70;53.80;;;;;;4971920;28;20466;-46
2022/01/27 11:34:11;;;;;;;21.30;11.10;;;7.70;53.90;;;;;;4972350;28;21088;-44
2022/01/27 11:36:38;;;;;;;20.50;11.70;;;7.60;54.00;;;;;;4969569;28;20446;-45
2022/01/27 11:39:11;;;;;;;21.37;12.43;;;7.50;54.10;;;;;;4970856;28;20431;-45
2022/01/27 11:41:48;;;;;;;21.60;12.20;;;7.40;54.70;;;;;;4977874;28;20487;-45
2022/01/27 11:44:25;;;;;;;21.13;12.90;;;7.50;54.70;;;;;;4973014;28;20446;-45
2022/01/27 11:47:13;;;;;;;25.80;13.70;;;7.60;54.60;;;;;;4970989;28;20476;-46
2022/01/27 11:49:53;;;;;;;19.20;12.40;;;7.70;54.40;;;;;;4966125;28;20529;-44
2022/01/27 11:52:22;;;;;;;19.67;12.40;;;7.80;54.20;;;;;;4971642;28;20443;-45
2022/01/27 11:54:48;;;;;;;21.50;10.70;;;7.80;53.90;;;;;;4972431;28;20482;-44
2022/01/27 11:57:37;;;;;;;19.40;11.57;;;7.80;53.90;;;;;;4969901;28;20441;-45
2022/01/27 12:00:31;;;;;;;21.57;12.13;;;7.90;54.00;;;;;;4973159;28;20637;-45
2022/01/27 12:03:03;;;;;;;17.13;10.77;;;7.90;53.90;;;;;;4962482;28;20453;-46
2022/01/27 12:05:39;;;;;;;24.33;11.40;;;7.80;54.00;;;;;;4971573;28;20438;-44
2022/01/27 12:08:13;;;;;;;18.70;12.00;;;7.70;54.20;;;;;;4972087;28;20445;-45
2022/01/27 12:10:50;;;;;;;20.90;12.43;;;7.70;54.20;;;;;;4970578;28;20496;-46
2022/01/27 12:13:31;;;;;;;22.83;12.90;;;7.60;54.00;;;;;;4967499;28;21117;-46
2022/01/27 12:19:09;;;;;;;20.50;12.57;;;7.40;54.20;;;;;;4968577;28;20891;-46
2022/01/27 12:21:44;;;;;;;20.07;12.77;;;7.30;54.40;;;;;;4969510;28;20486;-45
2022/01/27 12:24:24;;;;;;;19.83;12.10;;;7.40;54.60;;;;;;4970641;28;20469;-46
2022/01/27 12:26:54;;;;;;;18.47;12.37;;;7.40;54.50;;;;;;4970453;28;20462;-45
2022/01/27 12:29:41;;;;;;;23.10;14.60;;;7.60;54.50;;;;;;4970601;28;20453;-47
2022/01/27 12:32:24;;;;;;;18.57;11.97;;;7.60;54.40;;;;;;4960544;28;20558;-45
2022/01/27 12:35:04;;;;;;;22.60;12.60;;;7.70;54.40;;;;;;4967593;28;20490;-45
2022/01/27 12:37:34;;;;;;;22.37;13.80;;;7.70;54.30;;;;;;4970261;28;20533;-48
2022/01/27 12:40:04;;;;;;;23.77;12.77;;;7.70;54.10;;;;;;4971148;28;20862;-46
2022/01/27 12:42:35;;;;;;;25.50;13.10;;;7.80;53.90;;;;;;4969708;28;20465;-45
2022/01/27 12:45:05;;;;;;;24.43;13.37;;;7.90;53.80;;;;;;4971431;28;20486;-47
2022/01/27 12:47:32;;;;;;;20.67;13.37;;;7.80;53.60;;;;;;4970848;28;20454;-45
2022/01/27 12:50:05;;;;;;;23.30;12.80;;;7.80;53.90;;;;;;4969874;28;20529;-44
2022/01/27 12:52:36;;;;;;;17.30;10.50;;;7.90;53.90;;;;;;4972843;28;20426;-45
2022/01/27 12:55:02;;;;;;;17.70;11.17;;;7.80;53.80;;;;;;4973902;28;20446;-45
2022/01/27 12:57:29;;;;;;;21.23;12.23;;;7.80;54.10;;;;;;4973970;28;20446;-45
2022/01/27 12:59:56;;;;;;;18.57;12.00;;;7.80;54.20;;;;;;4975511;28;20204;-44
2022/01/27 13:02:25;;;;;;;15.70;10.47;;;7.90;53.80;;;;;;4973526;28;20780;-45
2022/01/27 13:04:57;;;;;;;14.70;10.87;;;8.00;53.70;;;;;;4973276;28;20930;-45
2022/01/27 13:07:25;;;;;;;18.50;11.00;;;8.00;53.60;;;;;;4975422;28;20526;-44
2022/01/27 13:10:01;;;;;;;17.00;11.00;;;8.10;53.80;;;;;;4976042;28;20465;-44
2022/01/27 13:12:33;;;;;;;16.17;11.00;;;8.10;53.70;;;;;;4972150;28;20462;-49
2022/01/27 13:15:14;;;;;;;18.97;12.30;;;8.20;53.50;;;;;;4971659;28;20521;-45
2022/01/27 13:20:35;;;;;;;17.90;10.67;;;8.10;53.20;;;;;;4972377;28;20447;-47
2022/01/27 13:23:15;;;;;;;20.87;11.27;;;8.20;53.20;;;;;;4971270;28;20470;-44
2022/01/27 13:25:55;;;;;;;16.30;10.90;;;8.10;53.00;;;;;;4970826;28;20848;-44
2022/01/27 13:28:28;;;;;;;17.20;10.67;;;8.20;53.00;;;;;;4970929;28;20439;-44
2022/01/27 13:31:04;;;;;;;17.87;10.50;;;8.30;52.80;;;;;;4973243;28;20465;-46
2022/01/27 13:33:38;;;;;;;16.73;10.37;;;8.20;52.80;;;;;;4960871;28;20545;-48
2022/01/27 13:36:07;;;;;;;13.67;9.20;;;8.30;53.00;;;;;;4973320;28;20684;-45
2022/01/27 13:38:51;;;;;;;17.63;10.63;;;8.30;53.10;;;;;;4973869;28;20454;-44